Time;durP1;ratioP1;P1;durP2;ratioP2;P2;SDS_P1;SDS_P2;PMS_P1;PMS_P2;Temp;Humidity;BMP_temperature;BMP_pressure;BME280_temperature;BME280_humidity;BME280_pressure;Samples;Min_cycle;Max_cycle;Signal;HPM_P1;HPM_P2
2021/03/01 00:04:00;;;;;;;20.50;9.57;;;;;;;4.84;86.70;102394.70;3547747;82;32725;-84
2021/03/01 00:09:02;;;;;;;25.40;9.33;;;;;;;4.84;86.92;102404.25;3537564;81;98363;-84
2021/03/01 00:14:03;;;;;;;26.00;10.20;;;;;;;4.86;87.00;102405.33;3554061;81;26102;-83
2021/03/01 00:19:04;;;;;;;22.63;10.07;;;;;;;4.89;87.10;102418.38;3545746;80;98655;-83
2021/03/01 00:24:06;;;;;;;28.07;11.70;;;;;;;4.94;87.05;102400.58;3559611;82;29981;-84
2021/03/01 00:29:07;;;;;;;24.33;9.77;;;;;;;4.99;87.05;102405.97;3548449;82;98559;-83
2021/03/01 00:34:08;;;;;;;20.60;8.87;;;;;;;5.00;86.97;102407.05;3547538;81;31796;-84
2021/03/01 00:39:09;;;;;;;24.40;11.03;;;;;;;4.99;86.99;102401.88;3519739;80;98320;-84
2021/03/01 00:44:10;;;;;;;21.37;9.07;;;;;;;5.01;87.11;102401.86;3553446;81;28940;-84
2021/03/01 00:49:11;;;;;;;22.13;9.73;;;;;;;5.01;87.00;102405.12;3548515;82;98135;-83
2021/03/01 00:54:12;;;;;;;18.83;8.73;;;;;;;5.02;87.06;102395.86;3557133;82;34974;-83
2021/03/01 00:59:13;;;;;;;22.60;8.60;;;;;;;5.01;87.08;102403.76;3549252;81;98604;-84
2021/03/01 01:04:14;;;;;;;20.77;8.63;;;;;;;5.03;87.10;102393.38;3605479;80;35522;-84
2021/03/01 01:09:16;;;;;;;22.17;10.23;;;;;;;5.06;86.99;102390.05;3538624;79;98626;-84
2021/03/01 01:14:17;;;;;;;20.83;8.93;;;;;;;5.07;86.90;102388.97;3544728;81;34947;-84
2021/03/01 01:19:18;;;;;;;23.83;9.90;;;;;;;5.01;86.92;102386.84;3599060;80;98484;-84
2021/03/01 01:24:19;;;;;;;23.07;9.13;;;;;;;5.03;86.80;102384.62;3609201;81;35076;-84
2021/03/01 01:29:20;;;;;;;21.07;9.07;;;;;;;5.01;86.89;102391.48;3597986;80;98707;-84
2021/03/01 01:34:21;;;;;;;22.47;8.63;;;;;;;4.97;86.86;102380.34;3605577;80;35028;-84
2021/03/01 01:39:22;;;;;;;20.57;9.10;;;;;;;4.92;86.90;102383.13;3600353;80;98578;-84
2021/03/01 01:44:24;;;;;;;21.43;8.70;;;;;;;4.87;86.89;102383.22;3606836;80;35031;-84
2021/03/01 01:49:25;;;;;;;21.03;8.70;;;;;;;4.91;86.91;102376.63;3607999;81;98323;-84
2021/03/01 01:54:26;;;;;;;20.73;9.73;;;;;;;4.90;87.03;102368.16;3608418;80;36180;-84
2021/03/01 01:59:27;;;;;;;27.33;10.80;;;;;;;4.90;86.94;102378.52;3576196;78;98466;-84
2021/03/01 02:04:32;;;;;;;19.03;10.40;;;;;;;4.91;87.04;102386.17;3588717;80;35007;-84
2021/03/01 02:10:07;;;;;;;23.30;10.30;;;;;;;4.86;87.03;102384.30;3597946;80;98704;-84
2021/03/01 02:15:14;;;;;;;23.00;10.67;;;;;;;4.83;87.03;102387.62;3609816;80;35019;-84
2021/03/01 02:20:15;;;;;;;24.10;10.43;;;;;;;4.85;87.04;102390.07;3615729;80;98931;-84
2021/03/01 02:25:21;;;;;;;25.70;10.57;;;;;;;4.83;87.08;102384.90;3615807;80;35506;-83
2021/03/01 02:30:32;;;;;;;21.60;9.88;;;;;;;4.83;87.12;102388.16;3617724;80;98690;-83
2021/03/01 02:35:36;;;;;;;23.80;11.47;;;;;;;4.82;87.14;102379.73;3548772;81;34914;-83
2021/03/01 02:40:41;;;;;;;23.20;10.70;;;;;;;4.75;87.20;102382.80;3593843;81;98737;-84
2021/03/01 02:45:44;;;;;;;23.83;9.60;;;;;;;4.69;87.35;102374.41;3563555;81;35025;-83
2021/03/01 02:50:47;;;;;;;23.53;11.17;;;;;;;4.71;87.45;102380.95;3573387;81;98784;-83
2021/03/01 02:55:49;;;;;;;26.30;10.57;;;;;;;4.68;87.44;102375.52;3578954;81;35906;-84
2021/03/01 03:00:51;;;;;;;22.00;10.43;;;;;;;4.65;87.46;102378.81;3582980;81;98845;-84
2021/03/01 03:05:53;;;;;;;21.23;10.03;;;;;;;4.65;87.64;102380.75;3591758;81;35095;-83
2021/03/01 03:10:55;;;;;;;28.73;11.17;;;;;;;4.64;87.57;102373.11;3586294;81;98667;-83
2021/03/01 03:15:58;;;;;;;21.80;10.57;;;;;;;4.60;87.66;102376.72;3593755;81;35516;-83
2021/03/01 03:20:59;;;;;;;22.47;11.67;;;;;;;4.58;87.62;102377.56;3563894;81;98301;-83
2021/03/01 03:26:00;;;;;;;25.83;11.83;;;;;;;4.55;87.73;102378.95;3587778;81;35007;-84
2021/03/01 03:31:01;;;;;;;26.83;11.87;;;;;;;4.51;87.78;102379.27;3580255;79;98384;-84
2021/03/01 03:36:03;;;;;;;28.43;11.53;;;;;;;4.51;87.89;102383.89;3582028;81;35559;-83
2021/03/01 03:41:08;;;;;;;24.53;11.90;;;;;;;4.48;87.84;102383.13;3583343;81;98460;-83
2021/03/01 03:46:11;;;;;;;27.57;12.67;;;;;;;4.47;88.08;102385.59;3592523;81;34991;-83
2021/03/01 03:51:13;;;;;;;29.17;12.73;;;;;;;4.44;87.98;102388.88;3609151;80;98344;-83
2021/03/01 03:56:16;;;;;;;28.50;12.67;;;;;;;4.40;88.04;102394.11;3571586;81;35454;-83
2021/03/01 04:01:21;;;;;;;28.80;12.53;;;;;;;4.40;88.10;102394.11;3585921;80;98389;-84
2021/03/01 04:06:23;;;;;;;24.27;11.50;;;;;;;4.35;88.16;102384.61;3589499;81;34975;-83
2021/03/01 04:11:28;;;;;;;29.70;14.20;;;;;;;4.36;88.28;102387.59;3559973;81;98675;-83
2021/03/01 04:16:30;;;;;;;33.40;13.27;;;;;;;4.34;88.40;102388.98;3593798;81;36228;-83
2021/03/01 04:21:34;;;;;;;29.47;12.97;;;;;;;4.37;88.35;102397.39;3590376;80;98617;-83
2021/03/01 04:26:35;;;;;;;38.37;16.00;;;;;;;4.34;88.33;102400.71;3591313;81;35078;-83
2021/03/01 04:31:36;;;;;;;32.27;13.20;;;;;;;4.33;88.25;102389.55;3584563;81;98362;-83
2021/03/01 04:36:39;;;;;;;34.17;12.47;;;;;;;4.29;88.39;102390.39;3588453;81;34936;-83
2021/03/01 04:41:44;;;;;;;30.07;13.50;;;;;;;4.29;88.34;102387.67;3585022;81;98770;-83
2021/03/01 04:46:51;;;;;;;34.57;13.93;;;;;;;4.21;88.37;102395.12;3585069;81;55642;-83
2021/03/01 04:51:53;;;;;;;31.50;12.90;;;;;;;4.23;88.63;102395.09;3582276;81;98425;-81
2021/03/01 04:56:54;;;;;;;40.73;13.13;;;;;;;4.18;88.53;102398.41;3592447;81;34948;-83
2021/03/01 05:01:55;;;;;;;33.20;13.20;;;;;;;4.20;88.59;102396.22;3582543;81;98738;-83
2021/03/01 05:06:59;;;;;;;36.40;13.93;;;;;;;4.14;88.50;102402.82;3582339;81;36093;-83
2021/03/01 05:12:01;;;;;;;35.40;13.57;;;;;;;4.18;88.58;102401.12;3558466;81;98638;-83
2021/03/01 05:17:02;;;;;;;36.53;14.03;;;;;;;4.17;88.62;102406.32;3579634;81;35752;-82
2021/03/01 05:22:04;;;;;;;37.77;13.43;;;;;;;4.10;88.65;102396.31;3585529;80;98639;-83
2021/03/01 05:27:05;;;;;;;36.33;13.03;;;;;;;4.07;88.71;102415.41;3587557;81;35521;-82
2021/03/01 05:32:06;;;;;;;39.75;15.25;;;;;;;4.06;88.65;102407.51;3583041;81;98442;-82
2021/03/01 05:37:07;;;;;;;43.93;17.20;;;;;;;4.09;88.62;102406.39;3592747;81;35640;-83
2021/03/01 05:42:12;;;;;;;41.40;15.70;;;;;;;4.09;88.64;102410.47;3559467;81;98479;-83
2021/03/01 05:47:13;;;;;;;33.80;13.13;;;;;;;4.07;88.69;102423.58;3590819;81;35010;-83
2021/03/01 05:52:17;;;;;;;40.70;13.50;;;;;;;4.05;88.66;102427.12;3585563;81;98510;-83
2021/03/01 05:57:19;;;;;;;38.53;13.53;;;;;;;4.02;88.83;102429.06;3566222;81;34931;-82
2021/03/01 06:02:21;;;;;;;34.20;12.67;;;;;;;3.96;88.80;102428.02;3538281;81;98714;-85
2021/03/01 06:07:22;;;;;;;33.00;13.17;;;;;;;3.92;88.93;102433.23;3529608;82;35071;-85
2021/03/01 06:12:23;;;;;;;39.98;14.10;;;;;;;3.93;88.95;102431.33;3521443;82;98868;-85
2021/03/01 06:17:24;;;;;;;32.60;14.40;;;;;;;3.94;89.02;102431.59;3507278;82;35253;-85
2021/03/01 06:22:45;;;;;;;47.10;18.20;;;;;;;3.92;88.87;102431.04;3475910;83;98476;-83
2021/03/01 06:27:56;;;;;;;66.80;33.93;;;;;;;3.94;88.88;102439.77;3553528;80;98650;-85
2021/03/01 06:33:18;;;;;;;57.70;25.10;;;;;;;3.91;88.90;102441.67;3537101;82;35082;-85
2021/03/01 06:38:34;;;;;;;44.07;16.77;;;;;;;3.90;88.84;102444.97;3529193;81;98601;-85
2021/03/01 06:43:36;;;;;;;31.77;12.63;;;;;;;3.89;88.79;102453.41;3538307;82;26039;-84
2021/03/01 06:48:38;;;;;;;35.00;11.80;;;;;;;3.83;88.98;102451.83;3494475;82;98684;-86
2021/03/01 06:53:40;;;;;;;38.70;14.57;;;;;;;3.78;89.09;102468.20;3503451;82;35904;-85
2021/03/01 06:58:47;;;;;;;38.67;13.90;;;;;;;3.78;89.22;102467.63;3498216;83;98792;-85
2021/03/01 07:03:50;;;;;;;35.17;12.90;;;;;;;3.81;89.30;102470.34;3535799;81;35069;-83
2021/03/01 07:08:53;;;;;;;38.80;13.30;;;;;;;3.81;89.27;102464.89;3518369;81;98704;-86
2021/03/01 07:14:09;;;;;;;41.40;15.30;;;;;;;3.78;89.37;102476.38;3618021;80;34993;-82
2021/03/01 07:19:14;;;;;;;47.93;17.10;;;;;;;3.83;89.59;102477.14;3609212;79;99303;-84
2021/03/01 07:24:21;;;;;;;39.47;14.10;;;;;;;3.84;89.49;102488.33;3612502;80;35479;-83
2021/03/01 07:29:24;;;;;;;41.47;15.43;;;;;;;3.88;89.33;102496.17;3599614;80;98744;-82
2021/03/01 07:34:26;;;;;;;39.40;12.00;;;;;;;3.85;89.30;102502.20;3605649;81;35004;-82
2021/03/01 07:39:29;;;;;;;41.42;15.45;;;;;;;3.87;89.22;102503.29;3599605;80;98537;-83
2021/03/01 07:44:35;;;;;;;41.27;15.47;;;;;;;3.87;89.29;102511.46;3603677;81;35854;-83
2021/03/01 07:49:48;;;;;;;41.63;14.40;;;;;;;3.86;89.32;102519.34;3606005;80;98674;-82
2021/03/01 07:55:02;;;;;;;41.43;16.37;;;;;;;3.86;89.34;102516.08;3606184;80;36185;-83
2021/03/01 08:00:26;;;;;;;39.53;14.70;;;;;;;3.83;89.31;102515.84;3597761;81;98689;-83
2021/03/01 08:05:32;;;;;;;44.33;15.50;;;;;;;3.81;89.53;102516.64;3580229;81;35025;-83
2021/03/01 08:10:37;;;;;;;;;;;;;;;3.94;89.68;102508.66;3577881;81;99066;-83
2021/03/01 08:15:44;;;;;;;54.30;15.57;;;;;;;3.97;89.77;102512.20;3577849;81;26114;-83
2021/03/01 08:20:54;;;;;;;49.33;17.98;;;;;;;4.08;89.61;102498.77;3598780;81;98839;-85
2021/03/01 08:25:58;;;;;;;39.70;16.90;;;;;;;4.14;89.26;102497.63;3545702;82;35110;-85
2021/03/01 08:31:21;;;;;;;46.45;16.45;;;;;;;4.13;89.31;102497.38;3600609;78;98146;-83
2021/03/01 08:36:25;;;;;;;42.50;14.77;;;;;;;4.13;89.40;102498.73;3611148;81;35160;-83
2021/03/01 08:41:39;;;;;;;37.27;16.37;;;;;;;4.17;89.30;102503.89;3601215;79;98625;-83
2021/03/01 08:46:40;;;;;;;46.17;17.23;;;;;;;4.26;89.06;102507.62;3583746;81;35504;-83
2021/03/01 08:51:41;;;;;;;41.53;16.00;;;;;;;4.27;88.89;102516.62;3570359;81;98659;-83
2021/03/01 08:56:42;;;;;;;52.20;18.27;;;;;;;4.32;88.92;102516.58;3598486;80;35503;-83
2021/03/01 09:01:49;;;;;;;51.63;17.73;;;;;;;4.31;88.94;102517.12;3576150;81;98439;-83
2021/03/01 09:06:50;;;;;;;49.13;17.03;;;;;;;4.37;89.07;102514.61;3609395;80;35060;-82
2021/03/01 09:11:51;;;;;;;41.87;15.73;;;;;;;4.39;89.09;102526.06;3600999;80;98835;-83
2021/03/01 09:16:54;;;;;;;49.53;17.73;;;;;;;4.45;89.15;102524.92;3561001;81;35167;-84
2021/03/01 09:21:55;;;;;;;45.67;19.03;;;;;;;4.50;88.89;102534.97;3585836;81;98503;-82
2021/03/01 09:26:56;;;;;;;39.00;16.73;;;;;;;4.57;88.95;102543.09;3589310;81;35165;-84
2021/03/01 09:31:57;;;;;;;36.23;15.13;;;;;;;4.66;88.55;102540.55;3581740;81;98603;-85
2021/03/01 09:36:59;;;;;;;37.63;16.77;;;;;;;4.69;88.50;102540.79;3595467;81;34940;-81
2021/03/01 09:42:01;;;;;;;41.80;17.23;;;;;;;4.65;88.31;102553.94;3583362;79;98505;-83
2021/03/01 09:47:03;;;;;;;39.00;17.20;;;;;;;4.72;88.25;102557.97;3598280;81;35123;-84
2021/03/01 09:52:04;;;;;;;32.28;15.05;;;;;;;4.76;88.08;102554.91;3586337;79;98923;-84
2021/03/01 09:57:08;;;;;;;32.93;15.73;;;;;;;4.80;88.03;102563.36;3599540;81;35049;-84
2021/03/01 10:02:25;;;;;;;35.53;16.67;;;;;;;4.80;88.11;102566.88;3577506;81;98777;-83
2021/03/01 10:07:28;;;;;;;;;;;;;;;4.85;88.25;102564.11;3556734;82;26461;-83
2021/03/01 10:12:29;;;;;;;32.57;14.70;;;;;;;4.90;88.13;102573.61;3547110;80;83906;-84
2021/03/01 10:17:34;;;;;;;33.80;17.60;;;;;;;4.98;88.24;102573.55;3549171;82;34981;-85
2021/03/01 10:22:57;;;;;;;34.43;17.53;;;;;;;5.03;88.04;102576.23;3539862;81;98453;-84
2021/03/01 10:27:58;;;;;;;34.08;18.02;;;;;;;5.06;88.08;102569.64;3540089;81;98840;-84
2021/03/01 10:33:07;;;;;;;38.80;19.27;;;;;;;5.16;87.96;102572.80;3545415;82;35582;-84
2021/03/01 10:38:08;;;;;;;39.07;18.77;;;;;;;5.26;87.45;102582.26;3545317;81;98841;-84
2021/03/01 10:43:13;;;;;;;34.23;18.63;;;;;;;5.28;87.30;102581.41;3532288;83;35117;-85
2021/03/01 10:48:14;;;;;;;31.70;16.03;;;;;;;5.30;87.51;102582.75;3525985;82;98575;-85
2021/03/01 10:53:15;;;;;;;32.77;16.80;;;;;;;5.35;87.15;102585.99;3536252;82;35113;-85
2021/03/01 10:58:17;;;;;;;28.17;14.63;;;;;;;5.33;86.94;102582.72;3554407;80;99015;-84
2021/03/01 11:03:18;;;;;;;28.00;14.57;;;;;;;5.37;86.58;102575.05;3584015;80;35009;-85
2021/03/01 11:08:19;;;;;;;29.53;15.37;;;;;;;5.38;86.35;102567.11;3587200;81;98860;-85
2021/03/01 11:13:20;;;;;;;34.67;17.20;;;;;;;5.43;86.66;102574.42;3591204;81;36124;-85
2021/03/01 11:18:21;;;;;;;31.27;15.10;;;;;;;5.49;86.33;102564.52;3582394;81;99037;-86
2021/03/01 11:23:22;;;;;;;28.73;13.83;;;;;;;5.45;86.32;102560.73;3594804;81;35520;-86
2021/03/01 11:28:23;;;;;;;23.50;11.03;;;;;;;5.46;86.41;102557.47;3589045;81;98403;-86
2021/03/01 11:33:24;;;;;;;27.80;11.83;;;;;;;5.51;86.47;102560.94;3591400;81;34979;-86
2021/03/01 11:38:26;;;;;;;27.60;13.83;;;;;;;5.56;86.48;102552.68;3582736;81;98821;-87
2021/03/01 11:43:27;;;;;;;26.70;12.83;;;;;;;5.66;85.94;102553.09;3593068;81;34984;-86
2021/03/01 11:48:28;;;;;;;26.77;14.13;;;;;;;5.71;86.31;102552.49;3580774;81;98805;-86
2021/03/01 11:53:30;;;;;;;26.40;13.00;;;;;;;5.75;85.99;102555.45;3587850;81;35002;-86
2021/03/01 11:58:31;;;;;;;26.33;13.57;;;;;;;5.74;85.99;102553.83;3559458;81;98941;-87
2021/03/01 12:03:32;;;;;;;28.83;14.00;;;;;;;5.75;85.87;102552.72;3579897;81;34940;-88
2021/03/01 12:08:34;;;;;;;27.97;13.67;;;;;;;5.72;85.68;102545.13;3527823;80;98151;-87
2021/03/01 12:13:35;;;;;;;29.57;13.67;;;;;;;5.66;85.62;102543.53;3549999;81;35523;-85
2021/03/01 12:18:36;;;;;;;27.13;14.10;;;;;;;5.70;85.64;102542.67;3542282;81;98608;-85
2021/03/01 12:23:37;;;;;;;25.27;13.23;;;;;;;5.73;85.72;102546.17;3557184;82;35618;-85
2021/03/01 12:28:38;;;;;;;25.92;13.05;;;;;;;5.78;85.46;102543.95;3550977;82;98702;-86
2021/03/01 12:33:39;;;;;;;26.77;14.23;;;;;;;5.87;85.59;102548.48;3535630;82;32737;-85
2021/03/01 12:38:40;;;;;;;32.57;15.17;;;;;;;5.88;85.54;102545.18;3522058;82;98582;-86
2021/03/01 12:43:41;;;;;;;27.13;14.00;;;;;;;5.95;85.60;102534.72;3540054;82;33857;-88
2021/03/01 12:48:42;;;;;;;25.57;13.50;;;;;;;5.97;85.22;102529.22;3509749;82;98668;-85
2021/03/01 12:53:43;;;;;;;24.53;13.33;;;;;;;5.95;85.07;102524.58;3534153;82;33196;-86
2021/03/01 12:58:44;;;;;;;26.50;13.58;;;;;;;5.98;85.32;102523.18;3525164;82;98616;-86
2021/03/01 13:03:45;;;;;;;25.87;12.80;;;;;;;6.04;84.92;102523.36;3534738;82;32735;-87
2021/03/01 13:08:46;;;;;;;22.63;11.93;;;;;;;6.03;84.56;102517.64;3523903;80;98503;-86
2021/03/01 13:13:47;;;;;;;27.40;13.90;;;;;;;5.99;84.66;102517.42;3541338;82;32686;-86
2021/03/01 13:18:48;;;;;;;28.23;14.50;;;;;;;6.00;84.67;102519.05;3537244;82;98752;-85
2021/03/01 13:23:50;;;;;;;26.50;14.50;;;;;;;6.01;84.36;102522.03;3552760;81;32666;-86
2021/03/01 13:28:51;;;;;;;27.20;14.53;;;;;;;5.96;84.77;102520.77;3541521;80;98770;-86
2021/03/01 13:33:52;;;;;;;29.53;15.33;;;;;;;6.03;84.94;102521.20;3538685;82;33536;-86
2021/03/01 13:38:53;;;;;;;28.66;14.14;;;;;;;6.10;84.60;102516.70;3521926;82;98619;-86
2021/03/01 13:43:54;;;;;;;28.30;15.20;;;;;;;6.16;84.54;102515.55;3537514;82;27477;-86
2021/03/01 13:48:55;;;;;;;29.13;14.77;;;;;;;6.20;84.15;102504.25;3510366;82;98691;-87
2021/03/01 13:53:56;;;;;;;27.23;14.13;;;;;;;6.25;83.95;102505.54;3534467;82;26073;-86
2021/03/01 13:58:57;;;;;;;29.97;15.27;;;;;;;6.26;83.82;102494.31;3557232;82;98670;-86
2021/03/01 14:03:58;;;;;;;36.53;16.97;;;;;;;6.37;83.84;102486.74;3553493;81;26541;-86
2021/03/01 14:08:59;;;;;;;34.20;16.57;;;;;;;6.44;83.87;102482.52;3525089;82;98636;-86
2021/03/01 14:14:00;;;;;;;30.53;15.73;;;;;;;6.45;83.03;102479.23;3549669;82;26456;-86
2021/03/01 14:19:01;;;;;;;29.83;16.60;;;;;;;6.48;82.88;102479.98;3544127;81;98788;-86
2021/03/01 14:24:02;;;;;;;33.27;16.23;;;;;;;6.55;83.26;102474.96;3530874;83;26346;-86
2021/03/01 14:29:03;;;;;;;35.13;16.27;;;;;;;6.65;82.95;102472.84;3518463;82;98964;-85
2021/03/01 14:34:05;;;;;;;37.07;17.40;;;;;;;6.68;82.82;102468.70;3525126;83;26699;-86
2021/03/01 14:39:07;;;;;;;42.83;19.07;;;;;;;6.73;82.89;102472.16;3547343;81;98365;-86
2021/03/01 14:44:09;;;;;;;39.83;18.53;;;;;;;6.75;82.42;102469.10;3553722;82;26732;-86
2021/03/01 14:49:11;;;;;;;39.70;19.70;;;;;;;6.77;82.36;102457.31;3550669;81;98718;-87
2021/03/01 14:54:12;;;;;;;37.90;16.87;;;;;;;6.71;82.00;102459.32;3525303;82;25970;-86
2021/03/01 14:59:13;;;;;;;34.90;17.50;;;;;;;6.64;81.68;102458.09;3520816;82;99008;-86
2021/03/01 15:04:14;;;;;;;39.48;19.30;;;;;;;6.60;81.96;102454.36;3564326;80;26377;-86
2021/03/01 15:09:15;;;;;;;38.40;20.20;;;;;;;6.58;81.86;102448.35;3575505;80;98848;-86
2021/03/01 15:14:16;;;;;;;42.77;20.33;;;;;;;6.56;81.75;102445.95;3582867;81;25968;-86
2021/03/01 15:19:18;;;;;;;39.73;19.03;;;;;;;6.50;81.41;102444.95;3581234;81;98567;-86
2021/03/01 15:24:19;;;;;;;34.73;18.20;;;;;;;6.47;81.55;102457.85;3590578;81;26405;-86
2021/03/01 15:29:20;;;;;;;37.27;18.60;;;;;;;6.45;82.00;102454.63;3578530;81;98870;-87
2021/03/01 15:34:21;;;;;;;31.77;16.43;;;;;;;6.48;81.86;102442.52;3590426;81;26074;-88
2021/03/01 15:39:22;;;;;;;38.63;17.90;;;;;;;6.43;81.90;102455.48;3584837;81;98640;-89
2021/03/01 15:44:23;;;;;;;33.77;17.10;;;;;;;6.40;81.84;102451.42;3593819;81;32957;-86
2021/03/01 15:49:24;;;;;;;31.67;16.97;;;;;;;6.35;81.80;102447.41;3582336;81;98321;-86
2021/03/01 15:54:25;;;;;;;29.55;15.20;;;;;;;6.29;81.91;102441.77;3594026;81;32966;-87
2021/03/01 15:59:26;;;;;;;36.40;18.63;;;;;;;6.23;81.97;102448.41;3575367;81;98681;-86
2021/03/01 16:04:27;;;;;;;35.30;18.47;;;;;;;6.19;81.94;102446.58;3577098;81;32992;-85
2021/03/01 16:09:28;;;;;;;40.50;20.17;;;;;;;6.10;82.15;102447.00;3537352;81;98582;-86
2021/03/01 16:14:29;;;;;;;46.47;21.53;;;;;;;6.05;82.05;102443.00;3549541;81;33091;-86
2021/03/01 16:19:30;;;;;;;47.53;24.20;;;;;;;5.95;82.14;102448.62;3540649;81;98619;-86
2021/03/01 16:24:32;;;;;;;47.03;24.15;;;;;;;5.84;82.32;102438.96;3556996;81;33982;-85
2021/03/01 16:29:34;;;;;;;51.70;24.97;;;;;;;5.77;82.35;102439.30;3547367;81;98693;-85
2021/03/01 16:34:35;;;;;;;45.67;23.93;;;;;;;5.62;82.18;102444.97;3552955;82;33865;-85
2021/03/01 16:39:36;;;;;;;48.45;24.47;;;;;;;5.55;82.40;102440.44;3550762;82;98631;-85
2021/03/01 16:44:39;;;;;;;46.53;25.00;;;;;;;5.45;82.48;102444.67;3553441;82;33388;-85
2021/03/01 16:49:44;;;;;;;60.97;28.80;;;;;;;5.31;82.42;102442.42;3512012;82;98601;-85
2021/03/01 16:54:49;;;;;;;66.50;29.60;;;;;;;5.21;82.77;102431.62;3506726;82;33014;-85
2021/03/01 16:59:53;;;;;;;52.30;24.87;;;;;;;5.04;82.92;102432.66;3525981;82;98721;-86
2021/03/01 17:04:54;;;;;;;58.33;29.00;;;;;;;4.90;82.70;102438.55;3523930;82;33289;-84
2021/03/01 17:10:02;;;;;;;110.93;41.53;;;;;;;4.75;82.74;102442.80;3548618;81;98567;-85
2021/03/01 17:15:10;;;;;;;80.37;34.37;;;;;;;4.63;83.10;102437.51;3530060;82;33061;-85
2021/03/01 17:20:13;;;;;;;80.77;35.67;;;;;;;4.50;83.24;102434.08;3518194;82;98253;-86
2021/03/01 17:25:14;;;;;;;95.77;38.63;;;;;;;4.38;83.68;102432.30;3542222;82;32958;-85
2021/03/01 17:30:17;;;;;;;73.07;32.83;;;;;;;4.22;83.52;102438.45;3546397;82;98765;-85
2021/03/01 17:35:18;;;;;;;72.37;32.23;;;;;;;4.06;83.53;102444.30;3554248;82;32953;-86
2021/03/01 17:40:20;;;;;;;67.57;32.40;;;;;;;3.89;83.64;102444.70;3510340;82;98761;-86
2021/03/01 17:45:21;;;;;;;81.87;39.63;;;;;;;3.79;83.76;102445.31;3558056;81;32941;-86
2021/03/01 17:50:27;;;;;;;90.90;42.60;;;;;;;3.66;83.79;102444.03;3519896;82;98889;-85
2021/03/01 17:55:52;;;;;;;89.00;42.48;;;;;;;3.53;83.59;102450.64;3533051;82;26551;-84
2021/03/01 18:00:55;;;;;;;72.27;38.03;;;;;;;3.41;83.60;102442.83;3537931;81;98389;-85
2021/03/01 18:05:58;;;;;;;76.33;37.50;;;;;;;3.34;84.62;102431.98;3571318;80;32973;-83
2021/03/01 18:11:00;;;;;;;65.60;36.45;;;;;;;3.27;84.92;102430.13;3554482;80;98507;-84
2021/03/01 18:16:02;;;;;;;65.63;34.27;;;;;;;3.15;84.93;102437.77;3611544;80;33222;-84
2021/03/01 18:21:05;;;;;;;71.17;36.77;;;;;;;3.03;84.97;102438.64;3555302;81;98452;-83
2021/03/01 18:26:07;;;;;;;77.20;38.53;;;;;;;2.92;85.27;102439.77;3582060;81;33656;-83
2021/03/01 18:31:11;;;;;;;71.43;35.50;;;;;;;2.84;85.70;102441.72;3574352;79;98592;-84
2021/03/01 18:36:17;;;;;;;71.77;34.43;;;;;;;2.75;85.48;102442.01;3586867;81;33003;-83
2021/03/01 18:41:19;;;;;;;69.60;34.35;;;;;;;2.61;85.42;102449.92;3582513;81;98483;-84
2021/03/01 18:46:24;;;;;;;102.73;43.93;;;;;;;2.52;85.76;102457.56;3592209;81;32956;-84
2021/03/01 18:51:25;;;;;;;77.03;37.00;;;;;;;2.44;85.92;102449.41;3586394;81;98602;-84
2021/03/01 18:56:27;;;;;;;74.70;37.60;;;;;;;2.38;86.05;102449.69;3592635;81;33091;-85
2021/03/01 19:01:28;;;;;;;88.20;41.20;;;;;;;2.32;86.08;102446.70;3586034;81;98424;-84
2021/03/01 19:06:29;;;;;;;91.23;42.57;;;;;;;2.15;85.69;102447.53;3625810;80;33970;-84
2021/03/01 19:11:30;;;;;;;91.83;47.20;;;;;;;2.05;86.39;102449.71;3582158;80;98507;-84
2021/03/01 19:16:31;;;;;;;95.63;46.10;;;;;;;2.00;86.45;102441.56;3581765;81;33788;-84
2021/03/01 19:21:32;;;;;;;89.83;44.10;;;;;;;1.86;86.32;102449.16;3568596;79;98584;-84
2021/03/01 19:26:33;;;;;;;95.30;46.73;;;;;;;1.77;86.49;102454.30;3577092;81;32141;-85
2021/03/01 19:31:34;;;;;;;99.87;49.67;;;;;;;1.63;86.52;102453.19;3570737;81;98622;-84
2021/03/01 19:36:35;;;;;;;106.90;49.33;;;;;;;1.55;87.13;102461.04;3576616;81;31186;-84
2021/03/01 19:41:38;;;;;;;95.03;45.37;;;;;;;1.48;87.20;102456.41;3611884;80;98772;-83
2021/03/01 19:46:38;;;;;;;105.70;50.50;;;;;;;1.43;87.29;102453.69;3580346;81;33126;-84
2021/03/01 19:51:39;;;;;;;101.47;49.33;;;;;;;1.35;87.43;102457.73;3562196;81;99048;-84
2021/03/01 19:56:41;;;;;;;89.30;43.78;;;;;;;1.28;87.51;102459.89;3584388;81;31427;-84
2021/03/01 20:01:43;;;;;;;101.37;45.87;;;;;;;1.24;87.87;102463.38;3581169;81;98707;-85
2021/03/01 20:06:44;;;;;;;103.43;49.07;;;;;;;1.19;87.92;102452.50;3612250;80;31054;-86
2021/03/01 20:11:45;;;;;;;112.13;52.73;;;;;;;1.16;88.07;102455.20;3578347;81;99118;-85
2021/03/01 20:16:46;;;;;;;111.90;55.20;;;;;;;1.13;88.15;102446.79;3584680;81;29741;-86
2021/03/01 20:21:47;;;;;;;103.77;50.87;;;;;;;1.12;88.25;102450.05;3580909;79;98942;-86
2021/03/01 20:26:48;;;;;;;116.23;54.47;;;;;;;1.02;87.94;102450.01;3593033;81;28737;-86
2021/03/01 20:31:49;;;;;;;119.27;54.80;;;;;;;0.97;88.00;102451.87;3582388;79;98524;-85
2021/03/01 20:36:50;;;;;;;113.87;54.67;;;;;;;0.88;88.01;102456.18;3582421;81;31775;-85
2021/03/01 20:41:51;;;;;;;113.33;53.40;;;;;;;0.91;88.38;102451.05;3572515;81;98916;-85
2021/03/01 20:46:52;;;;;;;106.00;53.40;;;;;;;0.86;88.33;102448.31;3583719;81;98680;-85
2021/03/01 20:51:53;;;;;;;118.83;56.17;;;;;;;0.81;88.35;102454.23;3591356;81;32002;-85
2021/03/01 20:56:54;;;;;;;113.33;56.13;;;;;;;0.74;88.32;102454.48;3607612;80;98772;-85
2021/03/01 21:01:55;;;;;;;119.77;58.80;;;;;;;0.66;88.33;102451.45;3585138;81;31076;-84
2021/03/01 21:06:58;;;;;;;131.03;58.87;;;;;;;0.58;88.47;102452.76;3562160;81;98599;-84
2021/03/01 21:12:01;;;;;;;128.43;56.67;;;;;;;0.52;88.46;102452.45;3543793;81;31660;-85
2021/03/01 21:17:03;;;;;;;122.77;59.67;;;;;;;0.44;88.43;102443.44;3527757;82;98771;-85
2021/03/01 21:22:15;;;;;;;110.87;57.77;;;;;;;0.41;88.51;102434.50;3543163;82;31923;-85
2021/03/01 21:27:18;;;;;;;127.70;58.77;;;;;;;0.34;88.56;102438.52;3541364;80;98436;-85
2021/03/01 21:32:22;;;;;;;126.90;59.93;;;;;;;0.27;88.72;102442.78;3531565;82;31809;-85
2021/03/01 21:37:26;;;;;;;140.50;64.83;;;;;;;0.28;88.82;102447.68;3527254;82;98786;-86
2021/03/01 21:42:27;;;;;;;133.20;64.37;;;;;;;0.31;89.21;102441.72;3528463;82;32335;-86
2021/03/01 21:47:32;;;;;;;134.50;64.70;;;;;;;0.26;89.15;102441.16;3548372;81;98740;-87
2021/03/01 21:52:35;;;;;;;125.83;62.13;;;;;;;0.23;89.16;102431.39;3520260;83;31943;-85
2021/03/01 21:57:36;;;;;;;124.97;60.23;;;;;;;0.20;89.27;102432.72;3523245;82;98684;-84
2021/03/01 22:02:38;;;;;;;113.07;55.93;;;;;;;0.16;89.16;102439.72;3552133;81;32192;-85
2021/03/01 22:07:39;;;;;;;113.33;55.03;;;;;;;0.17;89.34;102430.52;3503101;82;98839;-85
2021/03/01 22:12:44;;;;;;;113.63;56.30;;;;;;;0.13;89.31;102428.05;3522040;82;32278;-84
2021/03/01 22:17:45;;;;;;;108.55;51.42;;;;;;;0.05;89.24;102423.65;3550218;81;98554;-85
2021/03/01 22:22:47;;;;;;;121.93;54.00;;;;;;;-0.06;89.22;102432.23;3530054;82;32257;-84
2021/03/01 22:27:59;;;;;;;100.97;45.97;;;;;;;-0.07;89.39;102430.34;3520066;81;98886;-85
2021/03/01 22:33:06;;;;;;;105.17;49.60;;;;;;;-0.09;89.41;102425.17;3542184;81;31685;-85
2021/03/01 22:38:10;;;;;;;102.80;46.97;;;;;;;-0.15;89.73;102429.71;3520727;82;98521;-85
2021/03/01 22:43:17;;;;;;;90.87;43.37;;;;;;;-0.19;89.43;102426.44;3521050;82;98666;-84
2021/03/01 22:48:19;;;;;;;;;;;;;;;-0.17;89.56;102423.48;3527396;82;26522;-86
2021/03/01 22:53:22;;;;;;;91.73;42.90;;;;;;;-0.21;89.64;102420.47;3525960;82;87283;-85
2021/03/01 22:58:23;;;;;;;91.37;41.77;;;;;;;-0.26;89.50;102418.52;3543369;81;32000;-85
2021/03/01 23:03:24;;;;;;;91.57;43.07;;;;;;;-0.30;89.83;102422.01;3545463;82;98491;-85
2021/03/01 23:08:25;;;;;;;103.33;44.37;;;;;;;-0.30;89.91;102423.36;3585575;80;32727;-85
2021/03/01 23:13:26;;;;;;;94.37;43.00;;;;;;;-0.29;89.86;102432.30;3611481;80;98891;-86